Time;durP1;ratioP1;P1;durP2;ratioP2;P2;SDS_P1;SDS_P2;PMS_P1;PMS_P2;Temp;Humidity;BMP_temperature;BMP_pressure;BME280_temperature;BME280_humidity;BME280_pressure;Samples;Min_cycle;Max_cycle;Signal;HPM_P1;HPM_P2
2023/01/08 00:01:35;;;;;;;4.32;2.90;;;9.20;99.90;;;;;;5054388;28;20582;-79
2023/01/08 00:04:01;;;;;;;5.85;3.45;;;9.50;99.90;;;;;;5018405;28;20047;-80
2023/01/08 00:06:26;;;;;;;3.72;3.13;;;9.30;99.90;;;;;;5052400;28;20037;-83
2023/01/08 00:08:55;;;;;;;5.28;3.20;;;9.60;99.90;;;;;;5036057;28;20113;-79
2023/01/08 00:11:21;;;;;;;4.93;3.05;;;9.30;99.90;;;;;;5032896;28;20346;-83
2023/01/08 00:13:50;;;;;;;5.93;3.03;;;9.30;99.90;;;;;;5000636;28;20391;-81
2023/01/08 00:16:17;;;;;;;4.80;3.35;;;9.60;99.90;;;;;;5000922;28;20138;-82
2023/01/08 00:18:44;;;;;;;4.60;3.13;;;9.50;99.90;;;;;;5031241;28;20499;-83
2023/01/08 00:21:10;;;;;;;7.65;3.15;;;9.50;99.90;;;;;;5024131;28;20044;-81
2023/01/08 00:23:37;;;;;;;7.75;3.13;;;9.70;99.90;;;;;;5035940;28;20044;-79
2023/01/08 00:26:06;;;;;;;5.60;3.28;;;9.50;99.90;;;;;;5035476;28;20053;-80
2023/01/08 00:28:32;;;;;;;6.93;2.90;;;9.70;99.90;;;;;;5036307;28;20113;-83
2023/01/08 00:30:58;;;;;;;6.40;3.00;;;9.40;99.90;;;;;;5058639;28;20075;-82
2023/01/08 00:33:25;;;;;;;5.45;2.90;;;9.50;99.90;;;;;;5053118;28;20113;-80
2023/01/08 00:35:51;;;;;;;5.13;2.75;;;9.50;99.90;;;;;;5019837;28;20116;-86
2023/01/08 00:38:17;;;;;;;5.28;2.85;;;9.60;99.90;;;;;;5069667;28;20131;-81
2023/01/08 00:40:42;;;;;;;4.68;2.97;;;9.70;99.90;;;;;;5057577;28;20045;-82
2023/01/08 00:43:08;;;;;;;6.38;3.00;;;9.70;99.90;;;;;;5041107;28;20045;-80
2023/01/08 00:45:34;;;;;;;6.25;3.08;;;9.40;99.90;;;;;;5039946;28;20048;-79
2023/01/08 00:48:00;;;;;;;5.22;3.10;;;9.60;99.90;;;;;;5056834;28;20036;-82
2023/01/08 00:50:25;;;;;;;6.82;3.10;;;9.30;99.90;;;;;;5035491;28;20444;-81
2023/01/08 00:52:51;;;;;;;5.20;3.15;;;9.40;99.90;;;;;;5053977;28;20048;-78
2023/01/08 00:55:18;;;;;;;4.95;2.92;;;9.40;99.90;;;;;;5053070;28;20507;-81
2023/01/08 00:57:43;;;;;;;5.93;3.00;;;9.40;99.90;;;;;;5036085;28;20100;-80
2023/01/08 01:00:13;;;;;;;6.95;3.17;;;9.20;99.90;;;;;;5035486;28;20041;-82
2023/01/08 01:02:40;;;;;;;6.03;2.95;;;9.20;99.90;;;;;;5037068;28;20041;-81
2023/01/08 01:05:08;;;;;;;6.63;2.92;;;9.20;99.90;;;;;;5026255;28;20088;-82
2023/01/08 01:07:33;;;;;;;2.95;2.58;;;9.50;99.90;;;;;;5020909;28;20324;-83
2023/01/08 01:10:00;;;;;;;5.40;2.60;;;9.20;99.90;;;;;;5017935;28;20110;-77
2023/01/08 01:12:25;;;;;;;6.07;2.63;;;9.40;99.90;;;;;;5035237;28;20055;-79
2023/01/08 01:14:51;;;;;;;4.78;2.53;;;9.40;99.90;;;;;;5035931;28;20045;-80
2023/01/08 01:17:17;;;;;;;3.97;2.60;;;9.20;99.90;;;;;;5017682;28;20096;-80
2023/01/08 01:19:43;;;;;;;5.75;2.47;;;9.40;99.90;;;;;;5042431;28;20412;-80
2023/01/08 01:22:09;;;;;;;7.22;2.20;;;9.20;99.90;;;;;;5028709;28;20032;-79
2023/01/08 01:24:35;;;;;;;4.70;2.03;;;9.20;99.90;;;;;;5044766;28;20049;-81
2023/01/08 01:27:00;;;;;;;5.00;2.20;;;9.10;99.90;;;;;;5044102;28;20167;-83
2023/01/08 01:29:27;;;;;;;8.35;2.55;;;9.30;99.90;;;;;;5033731;28;20071;-83
2023/01/08 01:31:52;;;;;;;5.60;2.20;;;9.40;99.90;;;;;;5016070;28;20045;-84
2023/01/08 01:34:21;;;;;;;4.45;2.15;;;9.40;99.90;;;;;;5049032;28;20160;-82
2023/01/08 01:36:47;;;;;;;3.88;2.33;;;9.40;99.90;;;;;;5006016;28;20170;-79
2023/01/08 01:39:14;;;;;;;3.75;2.25;;;9.10;99.90;;;;;;5052302;28;20056;-82
2023/01/08 01:41:44;;;;;;;4.82;2.15;;;9.30;99.90;;;;;;5026193;28;20489;-84
2023/01/08 01:44:37;;;;;;;4.30;2.63;;;9.30;99.90;;;;;;5023757;28;20044;-82
2023/01/08 01:47:25;;;;;;;5.20;2.90;;;9.30;99.90;;;;;;5031318;28;20076;-84
2023/01/08 01:50:06;;;;;;;5.40;2.50;;;9.10;99.90;;;;;;5031975;28;20114;-82
2023/01/08 01:52:52;;;;;;;6.43;2.50;;;9.40;99.90;;;;;;5019811;28;20510;-84
2023/01/08 01:55:18;;;;;;;8.98;2.50;;;9.30;99.90;;;;;;5017725;28;20483;-80
2023/01/08 01:57:54;;;;;;;3.28;2.70;;;9.20;99.90;;;;;;5016698;28;20068;-81
2023/01/08 02:00:22;;;;;;;6.78;2.67;;;8.90;99.90;;;;;;5054534;28;20478;-83
2023/01/08 02:02:48;;;;;;;4.88;2.88;;;9.00;99.90;;;;;;5034910;28;20151;-83
2023/01/08 02:05:14;;;;;;;5.93;2.45;;;8.80;99.90;;;;;;5032573;28;20049;-80
2023/01/08 02:08:04;;;;;;;5.75;2.60;;;8.90;99.90;;;;;;5017291;28;20122;-80
2023/01/08 02:10:52;;;;;;;4.35;2.28;;;8.80;99.90;;;;;;5016824;28;20050;-81
2023/01/08 02:13:28;;;;;;;7.32;2.55;;;9.00;99.90;;;;;;5017086;28;20037;-81
2023/01/08 02:16:15;;;;;;;7.10;2.60;;;8.90;99.90;;;;;;5038776;28;20098;-83
2023/01/08 02:18:53;;;;;;;11.38;2.28;;;9.00;99.90;;;;;;5008896;28;20061;-84
2023/01/08 02:21:28;;;;;;;6.40;2.28;;;9.00;99.90;;;;;;5016205;28;20045;-79
2023/01/08 02:24:08;;;;;;;5.68;2.10;;;8.80;99.90;;;;;;5031995;28;20037;-82
2023/01/08 02:26:34;;;;;;;8.43;2.10;;;8.70;99.90;;;;;;4995182;28;20037;-84
2023/01/08 02:29:06;;;;;;;7.85;2.30;;;8.80;99.90;;;;;;5045160;28;20135;-82
2023/01/08 02:31:34;;;;;;;6.40;1.88;;;8.60;99.90;;;;;;5012804;28;20416;-82
2023/01/08 02:34:00;;;;;;;9.75;1.92;;;8.60;99.90;;;;;;5014220;28;20033;-82
2023/01/08 02:36:34;;;;;;;9.00;2.35;;;8.70;99.90;;;;;;5016551;28;20098;-84
2023/01/08 02:39:24;;;;;;;10.40;2.13;;;8.60;99.90;;;;;;4995510;28;20045;-83
2023/01/08 02:42:20;;;;;;;10.90;2.30;;;8.70;99.90;;;;;;5024900;28;20473;-82
2023/01/08 02:45:05;;;;;;;12.10;2.20;;;8.50;99.90;;;;;;5009393;28;20041;-85
2023/01/08 02:47:49;;;;;;;16.40;2.55;;;8.40;99.90;;;;;;4996708;28;20461;-84
2023/01/08 02:50:55;;;;;;;12.53;2.40;;;8.50;99.90;;;;;;5014395;28;20041;-83
2023/01/08 02:53:23;;;;;;;;;;;8.30;99.90;;;;;;5015061;28;20045;-78
2023/01/08 02:55:58;;;;;;;10.25;2.13;;;8.30;99.90;;;;;;5003148;28;19921;-78
2023/01/08 02:58:26;;;;;;;19.15;2.58;;;8.40;99.90;;;;;;5034713;28;20050;-80
2023/01/08 03:00:53;;;;;;;15.40;2.58;;;8.20;99.90;;;;;;5030462;28;20053;-80
2023/01/08 03:03:23;;;;;;;13.57;2.30;;;8.20;99.90;;;;;;4999686;28;20548;-82
2023/01/08 03:05:55;;;;;;;13.88;2.00;;;8.10;99.90;;;;;;5050141;28;20045;-79
2023/01/08 03:08:22;;;;;;;12.35;2.20;;;8.10;99.90;;;;;;4998363;28;20128;-81
2023/01/08 03:10:54;;;;;;;11.55;2.10;;;8.20;99.90;;;;;;4995772;28;20041;-79
2023/01/08 03:13:29;;;;;;;14.48;2.22;;;8.00;99.90;;;;;;5016075;28;20120;-81
2023/01/08 03:15:59;;;;;;;16.75;2.88;;;8.10;99.90;;;;;;5025324;28;20034;-81
2023/01/08 03:18:36;;;;;;;18.35;2.17;;;8.10;99.90;;;;;;5033647;28;20485;-79
2023/01/08 03:21:05;;;;;;;14.48;2.40;;;7.90;99.90;;;;;;5037019;28;20049;-83
2023/01/08 03:23:34;;;;;;;17.23;2.60;;;8.10;99.90;;;;;;5057058;28;20043;-80
2023/01/08 03:26:02;;;;;;;15.50;2.65;;;7.80;99.90;;;;;;5038752;28;20060;-83
2023/01/08 03:28:32;;;;;;;13.45;2.30;;;8.10;99.90;;;;;;5060862;28;20120;-80
2023/01/08 03:30:59;;;;;;;13.02;2.50;;;8.00;99.90;;;;;;5046381;28;20121;-80
2023/01/08 03:33:26;;;;;;;14.68;2.47;;;7.80;99.90;;;;;;5051572;28;20064;-79
2023/01/08 03:35:55;;;;;;;13.32;2.53;;;7.70;99.90;;;;;;5053081;28;20051;-81
2023/01/08 03:38:32;;;;;;;15.95;2.58;;;7.70;99.90;;;;;;5043160;28;20492;-80
2023/01/08 03:41:05;;;;;;;16.73;2.20;;;7.90;99.90;;;;;;5013799;28;20093;-81
2023/01/08 03:43:31;;;;;;;13.18;2.60;;;7.60;99.90;;;;;;5069747;28;20093;-83
2023/01/08 03:46:01;;;;;;;12.13;2.60;;;7.70;99.90;;;;;;5042921;28;20169;-79
2023/01/08 03:48:29;;;;;;;13.95;2.13;;;7.70;99.90;;;;;;5017787;28;20037;-79
2023/01/08 03:50:54;;;;;;;17.58;2.08;;;7.70;99.90;;;;;;5017895;28;20045;-83
2023/01/08 03:53:20;;;;;;;12.65;2.53;;;7.70;99.90;;;;;;5071554;28;20168;-81
2023/01/08 03:55:46;;;;;;;12.88;3.15;;;7.90;99.90;;;;;;5066698;28;20033;-84
2023/01/08 03:58:12;;;;;;;10.70;2.30;;;7.70;99.90;;;;;;5019761;28;20052;-79
2023/01/08 04:00:38;;;;;;;18.73;2.53;;;7.90;99.90;;;;;;5068318;28;20052;-81
2023/01/08 04:03:04;;;;;;;9.95;2.20;;;8.00;99.90;;;;;;5032239;28;20539;-81
2023/01/08 04:05:30;;;;;;;13.10;2.40;;;8.00;99.90;;;;;;5031599;28;20033;-81
2023/01/08 04:07:56;;;;;;;11.88;2.25;;;7.90;99.90;;;;;;5066298;28;20074;-82
2023/01/08 04:10:23;;;;;;;9.98;2.17;;;7.80;99.90;;;;;;5036188;28;20037;-80
2023/01/08 04:12:49;;;;;;;9.57;2.00;;;7.90;99.90;;;;;;5032700;28;20116;-80
2023/01/08 04:15:15;;;;;;;13.43;2.25;;;7.60;99.90;;;;;;5063649;28;20045;-82
2023/01/08 04:17:41;;;;;;;11.82;2.10;;;7.60;99.90;;;;;;5016754;28;20084;-81
2023/01/08 04:20:07;;;;;;;11.80;2.45;;;7.90;99.90;;;;;;5047716;28;20078;-81
2023/01/08 04:22:33;;;;;;;8.13;1.92;;;7.70;99.90;;;;;;5036077;28;20051;-80
2023/01/08 04:24:59;;;;;;;9.77;2.30;;;7.80;99.90;;;;;;5038948;28;20046;-82
2023/01/08 04:27:24;;;;;;;9.52;2.17;;;7.80;99.90;;;;;;5025074;28;20108;-80
2023/01/08 04:29:50;;;;;;;12.05;2.63;;;7.80;99.90;;;;;;5042725;28;20044;-79
2023/01/08 04:32:16;;;;;;;12.88;2.25;;;7.50;99.90;;;;;;5020834;28;20040;-82
2023/01/08 04:34:41;;;;;;;14.43;2.47;;;7.50;99.90;;;;;;5019018;28;20064;-80
2023/01/08 04:37:07;;;;;;;14.55;2.35;;;7.70;99.90;;;;;;5052182;28;20404;-78
2023/01/08 04:39:33;;;;;;;13.90;2.72;;;7.60;99.90;;;;;;5039362;28;20120;-82
2023/01/08 04:41:58;;;;;;;14.93;2.95;;;7.50;99.90;;;;;;5036992;28;20110;-81
2023/01/08 04:44:39;;;;;;;10.52;2.45;;;7.90;99.90;;;;;;5037339;28;20100;-82
2023/01/08 04:47:05;;;;;;;8.45;2.40;;;7.80;99.90;;;;;;5050696;28;20486;-81
2023/01/08 04:49:31;;;;;;;8.65;2.38;;;7.70;99.90;;;;;;5059657;28;20136;-81
2023/01/08 04:51:56;;;;;;;11.60;2.28;;;7.60;99.90;;;;;;5049028;28;20032;-79
2023/01/08 04:54:22;;;;;;;11.88;2.75;;;7.80;99.90;;;;;;5057700;28;20053;-80
2023/01/08 04:56:51;;;;;;;8.27;2.60;;;7.70;99.90;;;;;;5033322;28;20441;-79
2023/01/08 04:59:17;;;;;;;9.40;2.83;;;7.70;99.90;;;;;;5047377;28;21185;-81
2023/01/08 05:01:43;;;;;;;7.60;2.53;;;7.70;99.90;;;;;;5030803;28;20047;-83
2023/01/08 05:04:10;;;;;;;8.70;2.70;;;7.70;99.90;;;;;;5045938;28;20045;-78
2023/01/08 05:06:36;;;;;;;8.07;3.00;;;7.70;99.90;;;;;;5030413;28;20136;-81
2023/01/08 05:09:02;;;;;;;9.18;3.17;;;7.90;99.90;;;;;;5043187;28;20537;-80
2023/01/08 05:11:28;;;;;;;10.35;3.53;;;7.90;99.90;;;;;;5049334;28;20476;-82
2023/01/08 05:13:55;;;;;;;8.77;2.70;;;7.60;99.90;;;;;;5032885;28;20044;-81
2023/01/08 05:16:21;;;;;;;8.25;2.85;;;7.90;99.90;;;;;;5063694;28;20093;-81
2023/01/08 05:18:47;;;;;;;10.25;2.97;;;7.70;99.90;;;;;;5034732;28;20051;-79
2023/01/08 05:21:12;;;;;;;9.32;3.35;;;7.50;99.90;;;;;;5069137;28;20376;-81
2023/01/08 05:23:38;;;;;;;12.27;3.00;;;7.60;99.90;;;;;;5040795;28;20041;-84
2023/01/08 05:26:05;;;;;;;7.25;2.90;;;7.90;99.90;;;;;;5021491;28;20040;-82
2023/01/08 05:28:32;;;;;;;9.38;3.15;;;7.90;99.90;;;;;;5038631;28;20040;-79
2023/01/08 05:30:58;;;;;;;6.90;3.10;;;7.50;99.90;;;;;;5019474;28;20047;-81
2023/01/08 05:33:24;;;;;;;13.90;3.40;;;7.80;99.90;;;;;;5035931;28;20037;-80
2023/01/08 05:35:50;;;;;;;8.43;3.10;;;8.00;99.90;;;;;;5018769;28;20047;-80
2023/01/08 05:38:16;;;;;;;11.50;3.17;;;7.90;99.90;;;;;;5034985;28;20033;-77
2023/01/08 05:40:42;;;;;;;7.65;2.92;;;8.00;99.90;;;;;;5053263;28;20115;-81
2023/01/08 05:43:11;;;;;;;8.13;2.88;;;7.60;99.90;;;;;;5033210;28;20033;-79
2023/01/08 05:45:36;;;;;;;9.70;3.03;;;8.00;99.90;;;;;;5043398;28;20450;-82
2023/01/08 05:48:06;;;;;;;7.03;3.00;;;7.80;99.90;;;;;;5042963;28;20045;-83
2023/01/08 05:50:32;;;;;;;11.50;2.97;;;7.90;99.90;;;;;;5053001;28;20048;-82
2023/01/08 05:52:58;;;;;;;8.02;2.72;;;8.00;99.90;;;;;;5044771;28;20086;-81
2023/01/08 05:55:24;;;;;;;5.97;2.40;;;7.70;99.90;;;;;;5015653;28;20238;-83
2023/01/08 05:57:50;;;;;;;7.47;2.83;;;8.00;99.90;;;;;;5017393;28;20041;-83
2023/01/08 06:00:15;;;;;;;7.15;2.33;;;7.60;99.90;;;;;;5022616;28;20191;-79
2023/01/08 06:02:46;;;;;;;6.15;2.53;;;7.60;99.90;;;;;;5043960;28;20049;-78
2023/01/08 06:05:12;;;;;;;9.77;2.83;;;7.90;99.90;;;;;;5055335;28;20119;-83
2023/01/08 06:07:38;;;;;;;10.45;2.42;;;7.60;99.90;;;;;;5030994;28;20108;-78
2023/01/08 06:10:04;;;;;;;9.95;2.63;;;7.50;99.90;;;;;;5029076;28;20033;-83
2023/01/08 06:12:29;;;;;;;9.32;2.42;;;7.80;99.90;;;;;;5061322;28;20063;-82
2023/01/08 06:14:55;;;;;;;4.97;2.22;;;7.80;99.90;;;;;;5015058;28;20037;-80
2023/01/08 06:17:21;;;;;;;8.43;2.28;;;7.40;99.90;;;;;;5046147;28;20041;-83
2023/01/08 06:19:47;;;;;;;9.48;2.28;;;7.70;99.90;;;;;;5025792;28;20079;-82
2023/01/08 06:22:13;;;;;;;10.40;2.15;;;7.70;99.90;;;;;;5014463;28;20055;-79
2023/01/08 06:24:38;;;;;;;8.95;2.10;;;7.70;99.90;;;;;;5034041;28;20033;-82
2023/01/08 06:27:04;;;;;;;7.68;1.90;;;7.30;99.90;;;;;;5016798;28;20067;-82
2023/01/08 06:29:30;;;;;;;8.48;2.30;;;7.60;99.90;;;;;;5013526;28;20041;-84
2023/01/08 06:31:55;;;;;;;8.27;2.17;;;7.40;99.90;;;;;;5063541;28;20380;-81
2023/01/08 06:34:21;;;;;;;12.05;2.38;;;7.40;99.90;;;;;;5018770;28;20045;-80
2023/01/08 06:36:47;;;;;;;8.95;2.45;;;7.80;99.90;;;;;;5016534;28;20484;-81
2023/01/08 06:39:12;;;;;;;6.32;1.90;;;7.30;99.90;;;;;;5053908;28;20036;-82
2023/01/08 06:41:38;;;;;;;6.10;2.33;;;7.40;99.90;;;;;;5020588;28;20029;-80
2023/01/08 06:44:04;;;;;;;6.80;2.10;;;7.40;99.90;;;;;;5018826;28;20098;-83
2023/01/08 06:46:30;;;;;;;7.72;2.47;;;7.40;99.90;;;;;;5036589;28;22349;-79
2023/01/08 06:48:56;;;;;;;7.72;2.35;;;7.40;99.90;;;;;;5035686;28;20032;-85
2023/01/08 06:51:21;;;;;;;7.35;2.53;;;7.40;99.90;;;;;;5012432;28;20452;-80
2023/01/08 06:53:47;;;;;;;8.10;2.42;;;7.60;99.90;;;;;;5037047;28;20028;-82
2023/01/08 06:56:13;;;;;;;7.68;2.50;;;7.70;99.90;;;;;;5025008;28;20049;-80
2023/01/08 06:58:39;;;;;;;7.55;2.83;;;7.40;99.90;;;;;;5037533;28;20040;-79
2023/01/08 07:01:05;;;;;;;6.03;2.90;;;7.60;99.90;;;;;;5020940;28;20117;-82
2023/01/08 07:03:30;;;;;;;6.50;2.60;;;7.50;99.90;;;;;;5047999;28;20499;-80
2023/01/08 07:05:56;;;;;;;4.63;2.65;;;7.70;99.90;;;;;;5038599;28;20469;-83
2023/01/08 07:08:22;;;;;;;9.68;2.92;;;7.30;99.90;;;;;;5057148;28;20102;-79
2023/01/08 07:10:48;;;;;;;10.77;3.10;;;7.20;99.90;;;;;;5033347;28;20104;-80
2023/01/08 07:13:14;;;;;;;5.97;2.67;;;7.50;99.90;;;;;;5074777;28;20140;-80
2023/01/08 07:15:40;;;;;;;7.45;2.70;;;7.50;99.90;;;;;;5021050;28;20052;-80
2023/01/08 07:18:11;;;;;;;9.10;3.03;;;7.20;99.90;;;;;;5069476;28;20056;-82
2023/01/08 07:20:37;;;;;;;9.80;3.30;;;7.60;99.90;;;;;;5042789;28;20074;-82
2023/01/08 07:23:04;;;;;;;7.68;3.13;;;7.40;99.90;;;;;;5023119;28;20487;-83
2023/01/08 07:25:31;;;;;;;9.95;3.00;;;7.40;99.90;;;;;;5038600;28;20044;-81
2023/01/08 07:27:57;;;;;;;10.85;3.33;;;7.10;99.90;;;;;;5012753;28;20131;-82
2023/01/08 07:30:23;;;;;;;10.38;2.90;;;7.30;99.90;;;;;;5053074;28;20041;-83
2023/01/08 07:32:49;;;;;;;8.23;2.97;;;7.20;99.90;;;;;;5045165;28;20029;-80
2023/01/08 07:35:15;;;;;;;12.43;2.92;;;7.50;99.90;;;;;;5063281;28;20063;-79
2023/01/08 07:37:41;;;;;;;6.88;2.47;;;7.10;99.90;;;;;;5042567;28;20045;-77
2023/01/08 07:40:09;;;;;;;9.05;2.60;;;7.20;99.90;;;;;;5060978;28;20051;-80
2023/01/08 07:42:35;;;;;;;9.02;3.28;;;7.20;99.90;;;;;;5027026;28;20068;-85
2023/01/08 07:45:01;;;;;;;8.93;2.75;;;7.00;99.90;;;;;;5051302;28;20037;-79
2023/01/08 07:47:27;;;;;;;8.43;2.65;;;7.00;99.90;;;;;;5040181;28;20044;-82
2023/01/08 07:49:53;;;;;;;7.35;2.88;;;7.30;99.90;;;;;;5054222;28;20561;-80
2023/01/08 07:52:18;;;;;;;10.93;3.05;;;7.30;99.90;;;;;;5016803;28;20087;-80
2023/01/08 07:54:44;;;;;;;13.48;3.58;;;6.90;99.90;;;;;;5051050;28;20033;-80
2023/01/08 07:57:10;;;;;;;10.02;3.25;;;7.10;99.90;;;;;;5017159;28;20476;-80
2023/01/08 07:59:35;;;;;;;9.30;3.00;;;7.10;99.90;;;;;;5050574;28;20052;-83
2023/01/08 08:02:01;;;;;;;10.00;3.38;;;6.90;99.90;;;;;;5044644;28;20488;-80
2023/01/08 08:04:27;;;;;;;11.55;3.53;;;6.80;99.90;;;;;;5048576;28;20059;-81
2023/01/08 08:06:53;;;;;;;9.88;3.40;;;6.90;99.90;;;;;;5045228;28;20033;-81
2023/01/08 08:09:19;;;;;;;17.80;4.20;;;7.20;99.90;;;;;;5062349;28;20032;-82
2023/01/08 08:11:47;;;;;;;11.38;3.90;;;6.90;99.90;;;;;;5018988;28;20037;-81
2023/01/08 08:14:13;;;;;;;12.00;4.60;;;7.20;99.90;;;;;;5045944;28;20091;-81
2023/01/08 08:16:38;;;;;;;14.02;4.38;;;7.20;99.90;;;;;;5045903;28;20049;-79
2023/01/08 08:19:05;;;;;;;11.20;3.80;;;6.90;99.90;;;;;;5016810;28;20361;-79
2023/01/08 08:21:30;;;;;;;11.52;4.00;;;7.10;99.90;;;;;;5044478;28;20048;-80
2023/01/08 08:23:56;;;;;;;12.25;3.78;;;7.00;99.90;;;;;;5026940;28;20046;-80
2023/01/08 08:26:22;;;;;;;16.00;4.05;;;6.80;99.90;;;;;;5026676;28;20148;-80
2023/01/08 08:28:48;;;;;;;9.32;3.70;;;6.90;99.90;;;;;;5028310;28;20499;-79
2023/01/08 08:31:14;;;;;;;14.93;3.55;;;7.00;99.90;;;;;;5026561;28;20044;-78
2023/01/08 08:33:40;;;;;;;13.45;3.33;;;6.80;99.90;;;;;;5045139;28;20380;-82
2023/01/08 08:36:08;;;;;;;9.68;3.33;;;6.90;99.90;;;;;;5047731;28;20037;-85
2023/01/08 08:38:35;;;;;;;12.02;3.20;;;7.00;99.90;;;;;;5061091;28;20045;-83
2023/01/08 08:41:01;;;;;;;9.77;2.95;;;7.10;99.90;;;;;;5024692;28;20420;-80
2023/01/08 08:43:26;;;;;;;9.98;2.88;;;7.20;99.90;;;;;;5028191;28;20053;-80
2023/01/08 08:45:55;;;;;;;16.67;3.10;;;7.00;99.90;;;;;;5026349;28;20053;-84
2023/01/08 08:48:20;;;;;;;11.40;2.70;;;7.30;99.90;;;;;;5024627;28;20037;-80
2023/01/08 08:50:46;;;;;;;9.55;3.05;;;7.00;99.90;;;;;;5044296;28;20036;-76
2023/01/08 08:53:12;;;;;;;10.82;2.60;;;7.00;99.90;;;;;;5046391;28;20072;-80
2023/01/08 08:55:37;;;;;;;12.93;2.75;;;7.30;99.90;;;;;;5027349;28;20041;-78
2023/01/08 08:58:06;;;;;;;10.10;2.20;;;7.40;99.90;;;;;;5012236;28;20102;-78
2023/01/08 09:04:13;;;;;;;12.52;2.35;;;7.50;99.90;;;;;;5051977;28;20044;-80
2023/01/08 09:06:39;;;;;;;13.82;2.50;;;7.40;99.90;;;;;;5047251;28;20388;-81
2023/01/08 09:09:04;;;;;;;10.18;2.50;;;7.40;99.90;;;;;;5027095;28;20033;-82
2023/01/08 09:11:31;;;;;;;13.23;3.03;;;7.40;99.90;;;;;;5028994;28;20115;-80
2023/01/08 09:13:56;;;;;;;12.90;2.97;;;7.30;99.90;;;;;;5021779;28;20056;-78
2023/01/08 09:16:22;;;;;;;9.73;2.55;;;7.10;99.90;;;;;;5061118;28;20037;-81
2023/01/08 09:18:48;;;;;;;10.20;3.00;;;7.30;99.90;;;;;;5026794;28;20051;-80
2023/01/08 09:21:14;;;;;;;9.98;2.72;;;7.60;99.90;;;;;;5014450;28;20048;-82
2023/01/08 09:23:40;;;;;;;13.50;2.85;;;7.50;99.90;;;;;;5043254;28;20037;-80
2023/01/08 09:26:08;;;;;;;10.82;3.05;;;7.50;99.90;;;;;;5051161;28;20060;-79
2023/01/08 09:28:36;;;;;;;9.07;2.50;;;7.30;99.90;;;;;;5026174;28;20537;-81
2023/01/08 09:31:03;;;;;;;13.73;2.72;;;7.70;99.90;;;;;;5030958;28;20041;-79
2023/01/08 09:33:33;;;;;;;11.85;2.40;;;7.40;99.90;;;;;;5031742;28;20028;-80
2023/01/08 09:35:58;;;;;;;14.65;2.20;;;7.80;99.90;;;;;;5046868;28;20064;-82
2023/01/08 09:38:24;;;;;;;9.63;2.17;;;7.30;99.90;;;;;;5045141;28;20064;-78
2023/01/08 09:40:54;;;;;;;10.23;1.98;;;7.70;99.90;;;;;;5041356;28;20076;-81
2023/01/08 09:43:22;;;;;;;12.65;2.28;;;7.70;99.90;;;;;;5026792;28;20051;-81
2023/01/08 09:45:52;;;;;;;14.27;2.88;;;7.60;99.90;;;;;;5028978;28;20041;-81
2023/01/08 09:48:22;;;;;;;7.22;1.90;;;7.60;99.90;;;;;;5026993;28;20041;-81
2023/01/08 09:50:48;;;;;;;8.95;1.98;;;7.70;99.90;;;;;;5018142;28;20033;-82
2023/01/08 09:53:16;;;;;;;8.23;2.20;;;7.80;99.90;;;;;;5050694;28;20956;-84
2023/01/08 09:55:43;;;;;;;11.93;2.20;;;7.60;99.90;;;;;;5018591;28;20396;-81
2023/01/08 09:58:22;;;;;;;11.70;2.20;;;7.60;99.90;;;;;;5038830;28;20334;-80
2023/01/08 10:00:49;;;;;;;12.50;2.15;;;7.70;99.90;;;;;;5020082;28;20119;-81
2023/01/08 10:03:14;;;;;;;11.35;2.38;;;7.70;99.90;;;;;;5045847;28;20048;-80
2023/01/08 10:05:40;;;;;;;11.80;2.22;;;7.90;99.90;;;;;;5066376;28;20099;-80
2023/01/08 10:08:12;;;;;;;11.35;1.95;;;8.00;99.90;;;;;;5008180;28;20036;-82
2023/01/08 10:10:40;;;;;;;9.68;2.22;;;7.80;99.90;;;;;;5042512;28;20116;-84
2023/01/08 10:13:08;;;;;;;11.25;2.58;;;7.80;99.90;;;;;;5043656;28;20428;-83
2023/01/08 10:15:35;;;;;;;11.20;2.08;;;7.80;99.90;;;;;;5043953;28;20389;-84
2023/01/08 10:18:04;;;;;;;9.38;2.00;;;8.00;99.90;;;;;;5026844;28;20103;-81
2023/01/08 10:20:32;;;;;;;9.30;1.90;;;7.90;99.90;;;;;;5060868;28;20057;-83
2023/01/08 10:23:09;;;;;;;11.65;2.00;;;8.10;99.90;;;;;;5010081;28;20055;-81
2023/01/08 10:25:56;;;;;;;11.75;1.70;;;7.90;99.90;;;;;;5009664;28;20048;-83
2023/01/08 10:28:27;;;;;;;15.98;2.10;;;7.90;99.90;;;;;;5063337;28;20536;-82
2023/01/08 10:35:02;;;;;;;10.75;2.15;;;8.20;99.90;;;;;;5050334;28;20423;-81
2023/01/08 10:37:35;;;;;;;14.45;2.20;;;8.20;99.90;;;;;;5062928;28;20104;-82
2023/01/08 10:40:22;;;;;;;16.08;2.25;;;8.00;99.90;;;;;;5024098;28;20063;-82
2023/01/08 10:42:49;;;;;;;14.52;1.83;;;8.00;99.90;;;;;;5045165;28;20508;-81
2023/01/08 10:45:27;;;;;;;17.55;2.35;;;8.00;99.90;;;;;;5052690;28;20076;-82
2023/01/08 10:47:58;;;;;;;15.27;2.28;;;8.20;99.90;;;;;;5017206;28;20033;-78
2023/01/08 10:50:29;;;;;;;15.00;2.20;;;8.10;99.90;;;;;;5035079;28;20040;-79
2023/01/08 10:53:01;;;;;;;12.63;2.30;;;8.20;99.90;;;;;;5043351;28;20036;-78
2023/01/08 10:55:30;;;;;;;14.63;2.40;;;8.30;99.90;;;;;;5059673;28;20059;-80
2023/01/08 10:58:00;;;;;;;19.70;2.10;;;8.20;99.90;;;;;;5028520;28;20052;-83
2023/01/08 11:00:48;;;;;;;16.85;2.50;;;8.40;99.90;;;;;;5040170;28;20488;-80
2023/01/08 11:03:30;;;;;;;12.43;2.47;;;8.30;99.90;;;;;;5056111;28;20041;-79
2023/01/08 11:05:57;;;;;;;18.42;2.47;;;8.40;99.90;;;;;;5067542;28;20041;-81
2023/01/08 11:08:26;;;;;;;14.07;2.40;;;8.50;99.90;;;;;;5034574;28;20116;-80
2023/01/08 11:10:57;;;;;;;15.32;2.28;;;8.60;99.90;;;;;;5023330;28;20096;-83
2023/01/08 11:13:23;;;;;;;12.43;2.30;;;8.60;99.90;;;;;;5010942;28;20052;-83
2023/01/08 11:16:15;;;;;;;16.17;2.47;;;8.50;99.90;;;;;;5029248;28;20037;-79
2023/01/08 11:18:49;;;;;;;11.45;2.55;;;8.40;99.90;;;;;;5018409;28;20053;-79
2023/01/08 11:21:35;;;;;;;12.90;2.03;;;8.50;99.90;;;;;;5029857;28;20057;-81
2023/01/08 11:24:20;;;;;;;13.18;2.55;;;8.50;99.90;;;;;;5026380;28;20395;-81
2023/01/08 11:27:11;;;;;;;12.48;2.60;;;8.50;99.90;;;;;;5023831;28;20137;-81
2023/01/08 11:29:58;;;;;;;15.90;2.38;;;8.50;99.90;;;;;;5015728;28;20483;-80
2023/01/08 11:32:36;;;;;;;10.75;1.95;;;8.50;99.90;;;;;;5054286;28;20404;-81
2023/01/08 11:35:16;;;;;;;12.10;2.30;;;8.50;99.90;;;;;;5035419;28;20310;-82
2023/01/08 11:37:52;;;;;;;17.67;2.70;;;8.60;99.90;;;;;;5052762;28;20044;-80
2023/01/08 11:40:39;;;;;;;18.70;2.28;;;8.60;99.90;;;;;;5023395;28;20088;-81
2023/01/08 11:43:15;;;;;;;12.50;2.35;;;8.70;99.90;;;;;;5035407;28;20050;-80
2023/01/08 11:46:21;;;;;;;17.38;2.53;;;8.60;99.90;;;;;;5032692;28;20526;-81
2023/01/08 11:49:16;;;;;;;19.08;3.35;;;8.60;99.90;;;;;;5053810;28;20097;-80
2023/01/08 11:52:09;;;;;;;9.85;2.00;;;8.80;99.90;;;;;;5046721;28;20048;-80
2023/01/08 11:54:53;;;;;;;13.13;2.08;;;8.60;99.90;;;;;;5018596;28;20037;-79
2023/01/08 11:57:18;;;;;;;15.23;2.45;;;8.70;99.90;;;;;;5057880;28;20455;-79
2023/01/08 12:00:13;;;;;;;14.35;2.65;;;8.60;99.90;;;;;;5017150;28;20095;-82
2023/01/08 12:06:37;;;;;;;15.20;2.58;;;8.60;99.90;;;;;;5009765;28;20176;-78
2023/01/08 12:09:29;;;;;;;14.45;2.80;;;8.80;99.90;;;;;;4987207;28;20053;-81
2023/01/08 12:12:27;;;;;;;14.25;2.53;;;8.90;99.90;;;;;;4980358;28;20133;-82
2023/01/08 12:15:25;;;;;;;12.18;2.60;;;8.70;99.90;;;;;;4991588;28;20054;-80
2023/01/08 12:18:24;;;;;;;12.55;2.45;;;8.70;99.90;;;;;;4991203;28;20050;-80
2023/01/08 12:21:29;;;;;;;16.60;2.80;;;8.80;99.90;;;;;;4952808;28;20133;-78
2023/01/08 12:24:07;;;;;;;14.10;2.45;;;8.80;99.90;;;;;;4968619;28;20125;-81
2023/01/08 12:26:55;;;;;;;18.00;3.17;;;8.70;99.90;;;;;;4953576;28;20050;-79
2023/01/08 12:29:42;;;;;;;17.15;2.70;;;8.60;99.90;;;;;;4947702;28;20051;-81
2023/01/08 12:32:36;;;;;;;13.38;2.45;;;8.90;99.90;;;;;;4954068;28;20079;-79
2023/01/08 12:35:22;;;;;;;14.52;3.17;;;9.00;99.90;;;;;;4949838;28;20046;-80
2023/01/08 12:38:02;;;;;;;20.25;2.63;;;9.10;99.90;;;;;;4920264;29;20043;-79
2023/01/08 12:40:47;;;;;;;18.17;2.67;;;9.00;99.90;;;;;;4933482;28;20043;-79
2023/01/08 12:43:23;;;;;;;17.30;2.65;;;8.90;99.90;;;;;;4968517;28;20039;-79
2023/01/08 12:45:53;;;;;;;17.30;2.90;;;8.80;99.90;;;;;;4951724;28;20062;-81
2023/01/08 12:48:24;;;;;;;13.43;2.75;;;8.90;99.90;;;;;;4933181;28;20058;-83
2023/01/08 12:51:10;;;;;;;14.75;2.58;;;8.80;99.90;;;;;;4929544;28;20693;-81
2023/01/08 12:53:55;;;;;;;23.02;3.08;;;8.80;99.90;;;;;;4962994;28;20086;-80
2023/01/08 12:56:35;;;;;;;14.70;2.38;;;8.80;99.90;;;;;;4971683;28;20157;-82
2023/01/08 12:59:36;;;;;;;12.82;2.65;;;8.90;99.90;;;;;;4938899;28;20121;-79
2023/01/08 13:02:25;;;;;;;15.60;3.22;;;8.80;99.90;;;;;;4956797;28;20050;-81
2023/01/08 13:04:52;;;;;;;20.83;2.92;;;8.80;99.90;;;;;;4971546;28;20534;-83
2023/01/08 13:07:19;;;;;;;10.90;2.05;;;8.80;99.90;;;;;;5008702;28;20371;-80
2023/01/08 13:09:58;;;;;;;14.05;2.70;;;8.90;99.90;;;;;;5048670;28;20459;-82
2023/01/08 13:12:33;;;;;;;16.63;2.65;;;8.80;99.90;;;;;;5012176;28;20128;-81
2023/01/08 13:14:59;;;;;;;25.63;10.70;;;8.70;99.90;;;;;;4997071;28;20455;-80
2023/01/08 13:17:26;;;;;;;20.85;6.60;;;8.80;99.90;;;;;;5015252;28;20088;-79
2023/01/08 13:19:54;;;;;;;18.90;3.15;;;8.80;99.90;;;;;;5000205;28;20133;-81
2023/01/08 13:22:33;;;;;;;14.57;5.28;;;8.90;99.90;;;;;;5013211;28;20132;-84